Time;durP1;ratioP1;P1;durP2;ratioP2;P2;SDS_P1;SDS_P2;PMS_P1;PMS_P2;Temp;Humidity;BMP_temperature;BMP_pressure;BME280_temperature;BME280_humidity;BME280_pressure;Samples;Min_cycle;Max_cycle;Signal;HPM_P1;HPM_P2
2022/11/30 00:00:19;;;;;;;12.13;7.57;;;;;;;21.21;41.28;102280.81;5028080;28;20064;-63
2022/11/30 00:02:45;;;;;;;12.88;7.97;;;;;;;21.17;41.33;102276.78;5029575;28;20033;-63
2022/11/30 00:05:11;;;;;;;12.02;7.38;;;;;;;21.23;41.27;102284.13;5032599;28;20043;-63
2022/11/30 00:07:37;;;;;;;14.18;7.28;;;;;;;21.25;41.29;102281.34;5031153;28;20037;-63
2022/11/30 00:10:06;;;;;;;13.82;7.78;;;;;;;21.16;41.20;102275.13;5032687;28;20111;-63
2022/11/30 00:12:31;;;;;;;13.38;7.95;;;;;;;21.18;41.28;102274.97;5032044;28;20045;-63
2022/11/30 00:14:57;;;;;;;14.18;8.35;;;;;;;21.16;41.30;102282.22;5024371;28;20075;-63
2022/11/30 00:17:22;;;;;;;14.25;7.97;;;;;;;21.12;41.12;102281.72;5025541;28;20071;-63
2022/11/30 00:19:48;;;;;;;13.60;8.10;;;;;;;21.12;41.04;102282.53;5028857;28;20094;-63
2022/11/30 00:22:13;;;;;;;13.35;7.90;;;;;;;21.13;41.11;102286.03;5029609;28;20068;-63
2022/11/30 00:24:39;;;;;;;14.45;8.25;;;;;;;21.03;41.30;102285.28;5027496;28;20048;-63
2022/11/30 00:27:04;;;;;;;13.95;8.57;;;;;;;20.98;41.51;102277.78;5027959;28;20287;-63
2022/11/30 00:29:30;;;;;;;13.65;8.40;;;;;;;20.94;41.65;102291.47;5033566;28;20127;-63
2022/11/30 00:31:56;;;;;;;14.85;8.25;;;;;;;20.93;41.50;102268.63;5033001;28;20044;-63
2022/11/30 00:34:21;;;;;;;12.60;7.63;;;;;;;20.96;41.74;102290.34;5039349;28;20041;-63
2022/11/30 00:36:47;;;;;;;15.98;8.23;;;;;;;20.92;41.61;102289.00;5042562;28;20679;-63
2022/11/30 00:39:12;;;;;;;14.30;8.35;;;;;;;20.98;41.54;102292.84;5044635;28;20033;-63
2022/11/30 00:41:38;;;;;;;14.63;8.55;;;;;;;20.98;41.32;102287.53;5037222;28;20041;-63
2022/11/30 00:44:03;;;;;;;13.52;8.10;;;;;;;21.01;41.23;102289.91;5027742;28;20045;-63
2022/11/30 00:46:29;;;;;;;15.25;8.88;;;;;;;20.95;41.56;102290.50;5032394;28;20183;-63
2022/11/30 00:48:54;;;;;;;13.85;9.40;;;;;;;21.01;41.37;102279.31;5031424;28;20396;-63
2022/11/30 00:51:20;;;;;;;14.18;8.93;;;;;;;20.96;41.34;102286.88;5027242;28;20053;-63
2022/11/30 00:53:49;;;;;;;15.90;9.32;;;;;;;20.90;41.54;102284.84;5029489;28;20114;-63
2022/11/30 00:56:14;;;;;;;15.38;9.40;;;;;;;20.85;41.52;102280.00;5025869;28;20041;-63
2022/11/30 00:58:40;;;;;;;14.88;8.70;;;;;;;20.80;41.87;102291.03;5026164;28;20526;-63
2022/11/30 01:01:06;;;;;;;16.35;8.77;;;;;;;20.90;41.53;102287.47;5029519;28;20499;-63
2022/11/30 01:03:33;;;;;;;14.10;8.40;;;;;;;20.89;41.45;102291.94;5027971;28;20052;-63
2022/11/30 01:06:03;;;;;;;15.63;9.13;;;;;;;20.90;41.59;102300.72;5027984;28;20291;-63
2022/11/30 01:08:29;;;;;;;15.85;9.35;;;;;;;20.92;41.44;102293.47;5033020;28;20695;-63
2022/11/30 01:10:56;;;;;;;15.82;8.68;;;;;;;20.81;41.24;102302.44;5027030;28;20050;-63
2022/11/30 01:13:22;;;;;;;16.50;10.32;;;;;;;20.85;41.63;102290.59;5024964;28;20044;-63
2022/11/30 01:15:48;;;;;;;16.60;10.10;;;;;;;20.81;41.50;102290.03;5027619;28;20037;-63
2022/11/30 01:18:14;;;;;;;17.83;10.10;;;;;;;20.81;41.65;102308.56;5021752;28;20052;-63
2022/11/30 01:20:43;;;;;;;16.73;10.40;;;;;;;20.83;41.65;102304.97;5029446;28;20083;-63
2022/11/30 01:23:09;;;;;;;17.52;9.20;;;;;;;20.81;41.54;102315.69;5024459;28;20169;-63
2022/11/30 01:25:35;;;;;;;15.57;9.05;;;;;;;20.79;41.63;102322.94;5030881;28;20522;-63
2022/11/30 01:28:00;;;;;;;17.05;9.40;;;;;;;20.76;41.72;102318.78;5024141;28;20118;-63
2022/11/30 01:30:26;;;;;;;15.85;8.75;;;;;;;20.80;41.67;102322.78;5025354;28;20044;-63
2022/11/30 01:32:52;;;;;;;17.63;9.02;;;;;;;20.73;41.71;102327.03;5027890;28;20029;-63
2022/11/30 01:35:18;;;;;;;19.10;9.63;;;;;;;20.78;41.64;102327.41;5027354;28;20025;-63
2022/11/30 01:37:43;;;;;;;17.98;9.18;;;;;;;20.75;41.81;102322.41;5031916;28;20859;-63
2022/11/30 01:40:10;;;;;;;15.82;9.43;;;;;;;20.79;41.52;102325.59;5029250;28;20034;-63
2022/11/30 01:42:36;;;;;;;15.90;8.80;;;;;;;20.80;41.61;102317.50;5024666;28;20552;-63
2022/11/30 01:45:04;;;;;;;13.88;8.65;;;;;;;20.82;41.64;102320.00;5024379;28;20042;-63
2022/11/30 01:47:32;;;;;;;15.75;9.07;;;;;;;20.77;41.77;102324.91;5028223;28;20522;-63
2022/11/30 01:50:04;;;;;;;16.50;9.80;;;;;;;20.75;41.69;102322.41;5027109;28;20060;-63
2022/11/30 01:52:38;;;;;;;15.73;8.80;;;;;;;20.74;41.59;102328.69;5023545;28;20048;-63
2022/11/30 01:55:14;;;;;;;15.93;9.25;;;;;;;20.72;41.67;102324.53;5022487;28;20124;-63
2022/11/30 01:57:44;;;;;;;19.55;9.93;;;;;;;20.65;41.59;102310.25;5029324;28;20033;-63
2022/11/30 02:00:12;;;;;;;;;;;;;;;20.72;41.66;102328.00;5029278;28;20040;-63
2022/11/30 02:03:07;;;;;;;15.77;8.93;;;;;;;20.69;41.82;102325.66;5024952;28;21277;-63
2022/11/30 02:05:39;;;;;;;15.40;9.60;;;;;;;20.70;41.65;102335.28;5023470;28;20041;-63
2022/11/30 02:08:07;;;;;;;16.17;9.68;;;;;;;20.72;41.67;102333.31;5029552;28;20071;-63
2022/11/30 02:10:36;;;;;;;18.23;10.90;;;;;;;20.68;41.92;102339.06;5030689;28;20136;-63
2022/11/30 02:13:32;;;;;;;18.25;10.15;;;;;;;20.74;41.46;102333.16;5029951;28;20044;-63
2022/11/30 02:16:34;;;;;;;16.90;9.48;;;;;;;20.69;41.68;102332.78;5026709;28;20041;-63
2022/11/30 02:19:12;;;;;;;15.80;9.35;;;;;;;20.70;41.78;102334.44;5015671;28;20046;-63
2022/11/30 02:21:49;;;;;;;17.40;9.77;;;;;;;20.62;41.75;102335.16;5032630;28;20037;-63
2022/11/30 02:24:30;;;;;;;13.45;8.52;;;;;;;20.75;41.80;102332.19;5028385;28;20045;-63
2022/11/30 02:27:28;;;;;;;15.88;8.98;;;;;;;20.64;41.71;102327.06;5028573;28;20045;-63
2022/11/30 02:30:06;;;;;;;16.30;9.27;;;;;;;20.69;41.61;102335.44;5034435;28;20123;-63
2022/11/30 02:32:44;;;;;;;14.48;8.70;;;;;;;20.64;41.68;102329.72;5033606;28;20448;-63
2022/11/30 02:35:13;;;;;;;17.33;9.35;;;;;;;20.64;41.63;102333.19;5031623;28;20087;-63
2022/11/30 02:37:39;;;;;;;14.73;8.88;;;;;;;20.58;41.67;102323.22;5032162;28;20049;-63
2022/11/30 02:40:09;;;;;;;14.50;9.02;;;;;;;20.64;41.93;102332.38;5036361;28;20067;-63
2022/11/30 02:42:35;;;;;;;15.27;8.52;;;;;;;20.65;41.75;102329.59;5032868;28;20483;-63
2022/11/30 02:45:01;;;;;;;13.57;8.27;;;;;;;20.63;41.68;102330.72;5032478;28;20036;-63
2022/11/30 02:47:33;;;;;;;14.82;9.02;;;;;;;20.61;41.75;102330.84;5031280;28;20071;-63
2022/11/30 02:50:06;;;;;;;17.08;10.07;;;;;;;20.59;41.79;102338.13;5026692;28;20061;-63
2022/11/30 02:52:33;;;;;;;15.15;8.63;;;;;;;20.55;41.70;102331.47;5031428;28;20036;-62
2022/11/30 02:55:05;;;;;;;17.63;9.80;;;;;;;20.61;41.69;102324.72;5029709;28;20033;-62
2022/11/30 02:57:31;;;;;;;16.38;9.45;;;;;;;20.62;41.81;102334.34;5025250;28;20033;-63
2022/11/30 02:59:58;;;;;;;15.27;8.63;;;;;;;20.60;41.67;102329.19;5034571;28;20041;-62
2022/11/30 03:02:24;;;;;;;14.55;9.30;;;;;;;20.64;41.87;102337.66;5031840;28;20069;-62
2022/11/30 03:04:49;;;;;;;15.45;9.52;;;;;;;20.66;41.73;102333.91;5027586;28;20137;-62
2022/11/30 03:07:15;;;;;;;16.25;10.02;;;;;;;20.64;41.56;102335.03;5031612;28;20560;-62
2022/11/30 03:09:40;;;;;;;15.75;9.68;;;;;;;20.65;41.79;102334.06;5033826;28;20033;-62
2022/11/30 03:12:06;;;;;;;16.48;10.00;;;;;;;20.55;41.82;102326.16;5026630;28;20118;-62
2022/11/30 03:14:31;;;;;;;14.90;9.20;;;;;;;20.57;41.80;102324.19;5028141;28;20067;-62
2022/11/30 03:16:57;;;;;;;14.10;8.82;;;;;;;20.61;41.81;102322.91;5032635;28;20042;-62
2022/11/30 03:19:22;;;;;;;14.50;8.65;;;;;;;20.57;41.90;102328.66;5028762;28;20033;-62
2022/11/30 03:21:48;;;;;;;15.50;8.88;;;;;;;20.59;41.72;102319.59;5027817;28;20037;-62
2022/11/30 03:24:13;;;;;;;16.35;8.63;;;;;;;20.59;41.75;102322.25;5034644;28;20512;-63
2022/11/30 03:26:39;;;;;;;14.82;8.70;;;;;;;20.62;41.65;102327.22;5028418;28;20140;-62
2022/11/30 03:29:04;;;;;;;16.15;9.02;;;;;;;20.58;41.70;102325.03;5027758;28;20045;-62
2022/11/30 03:31:30;;;;;;;14.40;8.95;;;;;;;20.63;41.49;102326.25;5016734;28;20403;-62
2022/11/30 03:33:55;;;;;;;14.90;9.63;;;;;;;20.49;41.80;102322.31;5025205;28;20055;-62
2022/11/30 03:36:21;;;;;;;14.32;8.63;;;;;;;20.57;41.68;102332.16;5031915;28;20369;-63
2022/11/30 03:38:46;;;;;;;12.80;9.20;;;;;;;20.53;41.84;102333.44;5025784;28;20559;-62
2022/11/30 03:41:17;;;;;;;14.18;8.90;;;;;;;20.59;41.83;102330.19;5029247;28;20037;-62
2022/11/30 03:43:45;;;;;;;15.45;9.25;;;;;;;20.54;41.82;102334.25;5026431;28;20041;-62
2022/11/30 03:46:11;;;;;;;14.70;9.57;;;;;;;20.53;41.76;102330.78;5020674;28;20476;-62
2022/11/30 03:48:37;;;;;;;14.80;9.43;;;;;;;20.59;41.72;102339.94;5023594;28;20040;-62
2022/11/30 03:51:04;;;;;;;13.95;9.00;;;;;;;20.57;41.75;102349.84;5024986;28;20045;-62
2022/11/30 03:53:30;;;;;;;16.25;9.80;;;;;;;20.51;41.96;102332.75;5024234;28;20099;-62
2022/11/30 03:55:58;;;;;;;16.30;9.80;;;;;;;20.58;41.65;102341.75;5024843;28;20128;-62
2022/11/30 03:58:24;;;;;;;15.25;9.48;;;;;;;20.58;41.60;102344.41;5031047;28;20119;-62
2022/11/30 04:01:03;;;;;;;14.85;9.05;;;;;;;20.55;41.79;102349.16;5030097;28;20047;-62
2022/11/30 04:03:29;;;;;;;14.10;8.73;;;;;;;20.54;41.71;102350.13;5023196;28;20067;-62
2022/11/30 04:05:55;;;;;;;15.57;8.82;;;;;;;20.49;41.79;102353.22;5028701;28;20044;-62
2022/11/30 04:08:21;;;;;;;15.65;8.82;;;;;;;20.45;41.90;102360.59;5024719;28;21887;-62
2022/11/30 04:10:49;;;;;;;14.40;8.75;;;;;;;20.57;41.80;102355.13;5031683;28;20053;-62
2022/11/30 04:13:14;;;;;;;16.23;8.80;;;;;;;20.57;41.73;102355.97;5031232;28;20159;-62
2022/11/30 04:15:40;;;;;;;13.88;8.75;;;;;;;20.59;41.59;102353.16;5025081;28;20033;-62
2022/11/30 04:18:05;;;;;;;14.10;9.13;;;;;;;20.55;41.96;102363.22;5032040;28;20048;-62
2022/11/30 04:20:31;;;;;;;15.90;10.13;;;;;;;20.43;42.01;102364.38;5025382;28;20032;-63
2022/11/30 04:22:57;;;;;;;15.02;10.02;;;;;;;20.47;41.79;102365.78;5025153;28;20049;-62
2022/11/30 04:25:23;;;;;;;16.75;10.13;;;;;;;20.48;41.78;102370.94;5024492;28;20048;-62
2022/11/30 04:27:48;;;;;;;12.73;8.55;;;;;;;20.46;41.88;102361.44;5030396;28;20037;-62
2022/11/30 04:30:14;;;;;;;16.00;8.93;;;;;;;20.51;41.59;102370.63;5028431;28;20091;-62
2022/11/30 04:32:40;;;;;;;16.88;9.50;;;;;;;20.45;41.95;102373.00;5031201;28;20641;-62
2022/11/30 04:35:06;;;;;;;14.63;8.90;;;;;;;20.49;41.84;102371.75;5027803;28;20036;-62
2022/11/30 04:37:31;;;;;;;13.40;8.65;;;;;;;20.44;41.88;102374.00;5029153;28;20547;-62
2022/11/30 04:39:57;;;;;;;16.38;9.13;;;;;;;20.43;41.95;102367.03;5032600;28;20040;-63
2022/11/30 04:42:22;;;;;;;16.17;9.98;;;;;;;20.48;41.90;102367.44;5032011;28;20522;-63
2022/11/30 04:44:48;;;;;;;15.52;9.55;;;;;;;20.40;41.93;102372.59;5027543;28;20033;-62
2022/11/30 04:47:13;;;;;;;16.42;9.65;;;;;;;20.42;41.99;102374.13;5028381;28;20071;-62
2022/11/30 04:49:39;;;;;;;18.88;9.95;;;;;;;20.43;41.84;102362.56;5029609;28;20057;-62
2022/11/30 04:52:04;;;;;;;14.02;8.60;;;;;;;20.48;41.69;102367.44;5024592;28;20069;-62
2022/11/30 04:54:30;;;;;;;15.52;8.70;;;;;;;20.45;41.94;102370.34;5028491;28;20037;-63
2022/11/30 04:56:55;;;;;;;14.90;9.73;;;;;;;20.40;41.90;102376.06;5026980;28;20434;-62
2022/11/30 04:59:21;;;;;;;15.18;9.25;;;;;;;20.40;41.91;102372.59;5030014;28;20044;-62
2022/11/30 05:01:46;;;;;;;16.00;9.75;;;;;;;20.44;41.90;102382.75;5027624;28;20046;-62
2022/11/30 05:04:12;;;;;;;15.13;8.98;;;;;;;20.43;41.90;102389.03;5022618;28;20488;-62
2022/11/30 05:06:37;;;;;;;15.48;9.07;;;;;;;20.39;42.07;102385.00;5025648;28;20067;-62
2022/11/30 05:09:03;;;;;;;15.70;9.20;;;;;;;20.41;41.83;102385.69;5033574;28;20044;-62
2022/11/30 05:11:29;;;;;;;14.70;8.88;;;;;;;20.43;41.95;102383.75;5028490;28;20052;-62
2022/11/30 05:13:54;;;;;;;16.65;9.55;;;;;;;20.39;41.93;102382.34;5025391;28;20047;-62
2022/11/30 05:16:19;;;;;;;16.52;10.57;;;;;;;20.41;42.02;102385.69;5025907;28;20037;-62
2022/11/30 05:18:45;;;;;;;17.95;10.05;;;;;;;20.40;41.87;102391.09;5024572;28;20051;-62
2022/11/30 05:21:11;;;;;;;16.92;10.25;;;;;;;20.39;41.87;102395.56;5027080;28;20563;-62
2022/11/30 05:23:36;;;;;;;15.30;9.68;;;;;;;20.42;41.81;102405.06;5022223;28;20048;-62
2022/11/30 05:26:02;;;;;;;15.50;9.73;;;;;;;20.38;41.73;102393.91;5026261;28;20033;-62
2022/11/30 05:28:27;;;;;;;17.02;9.15;;;;;;;20.42;41.69;102400.59;5024160;28;20068;-62
2022/11/30 05:30:53;;;;;;;15.98;9.73;;;;;;;20.38;41.88;102407.13;5031018;28;20048;-62
2022/11/30 05:33:18;;;;;;;14.73;8.82;;;;;;;20.42;41.99;102405.88;5028646;28;20785;-62
2022/11/30 05:35:44;;;;;;;15.88;8.55;;;;;;;20.35;41.88;102399.50;5032557;28;20036;-62
2022/11/30 05:38:09;;;;;;;15.30;9.18;;;;;;;20.37;42.01;102399.34;5030967;28;20087;-62
2022/11/30 05:40:35;;;;;;;17.33;10.20;;;;;;;20.40;42.18;102401.69;5033484;28;20037;-62
2022/11/30 05:43:02;;;;;;;17.15;10.10;;;;;;;20.38;41.97;102401.00;5028585;28;20041;-62
2022/11/30 05:45:28;;;;;;;15.50;9.52;;;;;;;20.39;41.94;102400.88;5024764;28;20763;-62
2022/11/30 05:47:54;;;;;;;18.05;9.50;;;;;;;20.37;41.87;102405.47;5024962;28;20446;-62
2022/11/30 05:50:19;;;;;;;16.02;9.30;;;;;;;20.27;42.26;102399.38;5028181;28;20048;-62
2022/11/30 05:52:55;;;;;;;18.20;9.60;;;;;;;20.31;42.03;102398.13;5023147;28;20484;-62
2022/11/30 05:55:22;;;;;;;15.52;10.05;;;;;;;20.34;42.05;102405.75;5026202;28;20074;-62
2022/11/30 05:57:47;;;;;;;14.50;9.05;;;;;;;20.39;41.75;102407.97;5023308;28;20048;-62
2022/11/30 06:00:13;;;;;;;16.30;9.35;;;;;;;20.29;42.04;102412.44;5031154;28;20042;-62
2022/11/30 06:02:39;;;;;;;15.07;9.52;;;;;;;20.32;41.81;102398.97;5024491;28;20052;-62
2022/11/30 06:05:05;;;;;;;16.00;9.52;;;;;;;20.35;41.89;102418.00;5027918;28;20119;-62
2022/11/30 06:07:30;;;;;;;16.70;9.43;;;;;;;20.34;41.87;102405.75;5031259;28;21863;-62
2022/11/30 06:09:56;;;;;;;17.88;9.70;;;;;;;20.30;42.14;102414.16;5030619;28;20041;-62
2022/11/30 06:12:21;;;;;;;17.85;10.23;;;;;;;20.33;41.96;102405.91;5031416;28;20080;-62
2022/11/30 06:14:49;;;;;;;16.48;9.43;;;;;;;20.36;41.99;102414.38;5022555;28;20032;-62
2022/11/30 06:17:15;;;;;;;20.27;10.32;;;;;;;20.36;41.95;102405.63;5025110;28;20048;-62
2022/11/30 06:19:40;;;;;;;16.75;9.27;;;;;;;20.38;41.84;102408.94;5027444;28;20526;-62
2022/11/30 06:22:06;;;;;;;16.75;9.82;;;;;;;20.31;41.97;102403.41;5025756;28;20103;-62
2022/11/30 06:24:31;;;;;;;17.27;9.80;;;;;;;20.31;42.13;102411.34;5022114;28;20045;-62
2022/11/30 06:26:57;;;;;;;17.80;10.30;;;;;;;20.39;41.94;102410.63;5027452;28;20037;-62
2022/11/30 06:29:22;;;;;;;17.02;9.70;;;;;;;20.36;41.49;102411.75;5028421;28;20052;-62
2022/11/30 06:31:48;;;;;;;16.38;9.75;;;;;;;20.32;42.04;102407.72;5025728;28;20489;-62
2022/11/30 06:34:13;;;;;;;15.52;9.20;;;;;;;20.39;41.94;102419.38;5028832;28;20037;-62
2022/11/30 06:36:39;;;;;;;15.00;8.77;;;;;;;20.40;42.02;102407.00;5028547;28;20044;-62
2022/11/30 06:39:04;;;;;;;16.52;9.38;;;;;;;20.35;41.75;102410.06;5027579;28;20882;-62
2022/11/30 06:41:30;;;;;;;16.73;9.57;;;;;;;20.38;42.03;102424.81;5029566;28;20045;-62
2022/11/30 06:43:56;;;;;;;16.65;9.43;;;;;;;20.40;41.82;102417.56;5030412;28;20040;-62
2022/11/30 06:46:22;;;;;;;16.92;9.50;;;;;;;20.39;42.13;102413.25;5026692;28;20043;-62
2022/11/30 06:48:49;;;;;;;16.65;9.68;;;;;;;20.36;41.97;102421.50;5026563;28;21004;-62
2022/11/30 06:51:15;;;;;;;13.32;9.48;;;;;;;20.35;42.09;102425.13;5025519;28;20045;-62
2022/11/30 06:53:43;;;;;;;16.65;9.45;;;;;;;20.38;41.95;102430.13;5030385;28;20041;-62
2022/11/30 06:56:09;;;;;;;16.55;9.50;;;;;;;20.32;42.26;102425.41;5032136;28;20041;-62
2022/11/30 06:58:35;;;;;;;15.77;8.90;;;;;;;20.33;42.28;102429.72;5025949;28;20048;-62
2022/11/30 07:01:04;;;;;;;14.00;9.10;;;;;;;20.35;42.26;102439.19;5029919;28;20407;-62
2022/11/30 07:03:29;;;;;;;13.63;8.40;;;;;;;20.33;42.19;102429.72;5023716;28;20048;-62
2022/11/30 07:05:55;;;;;;;14.70;9.50;;;;;;;20.31;42.04;102434.31;5029318;28;20044;-62
2022/11/30 07:08:20;;;;;;;18.35;10.45;;;;;;;20.38;42.12;102440.69;5023074;28;20041;-62
2022/11/30 07:10:46;;;;;;;15.30;8.88;;;;;;;20.37;42.21;102450.44;5035572;28;20599;-62
2022/11/30 07:13:13;;;;;;;14.75;9.40;;;;;;;20.36;42.21;102455.88;5035175;28;20051;-62
2022/11/30 07:15:40;;;;;;;15.48;9.10;;;;;;;20.36;42.35;102456.72;5027008;28;20168;-62
2022/11/30 07:18:06;;;;;;;13.90;8.93;;;;;;;20.36;42.23;102455.88;5028090;28;20122;-62
2022/11/30 07:20:32;;;;;;;15.70;8.73;;;;;;;20.42;42.07;102471.22;5036560;28;20040;-62
2022/11/30 07:26:05;;;;;;;14.68;8.35;;;;;;;20.36;42.55;102472.59;5040726;28;20090;-62
2022/11/30 07:28:27;;;;;;;14.95;8.88;;;;;;;20.39;42.17;102474.94;5025569;28;20602;-62
2022/11/30 07:30:53;;;;;;;15.10;8.25;;;;;;;20.38;42.29;102477.75;5021026;28;20044;-62
2022/11/30 07:33:18;;;;;;;12.50;7.82;;;;;;;20.37;42.38;102486.66;5029332;28;20052;-62
2022/11/30 07:35:44;;;;;;;14.88;8.43;;;;;;;20.38;42.54;102486.50;5026875;28;20036;-62
2022/11/30 07:38:10;;;;;;;13.82;8.63;;;;;;;20.29;42.43;102491.81;5021517;28;20040;-62
2022/11/30 07:40:35;;;;;;;12.93;7.97;;;;;;;20.34;42.45;102489.59;5030655;28;20052;-62
2022/11/30 07:43:01;;;;;;;14.25;8.50;;;;;;;20.41;42.36;102490.72;5031940;28;20149;-62
2022/11/30 07:45:26;;;;;;;14.32;8.32;;;;;;;20.42;42.06;102492.38;5029372;28;20044;-62
2022/11/30 07:47:52;;;;;;;13.48;8.18;;;;;;;20.37;42.34;102498.06;5028996;28;20049;-63
2022/11/30 07:50:18;;;;;;;12.50;7.90;;;;;;;20.36;42.39;102500.88;5027736;28;20045;-62
2022/11/30 07:52:43;;;;;;;12.45;7.57;;;;;;;20.27;42.31;102494.59;5028692;28;20714;-62
2022/11/30 07:55:09;;;;;;;14.18;8.77;;;;;;;20.40;42.21;102502.25;5040624;28;20038;-62
2022/11/30 07:57:34;;;;;;;12.27;8.13;;;;;;;20.35;42.47;102510.63;5024997;28;20051;-61
2022/11/30 07:59:59;;;;;;;13.25;8.68;;;;;;;20.37;42.38;102510.47;5026958;28;20045;-62
2022/11/30 08:02:25;;;;;;;14.32;8.05;;;;;;;20.17;42.50;102502.56;5029952;28;20533;-62
2022/11/30 08:04:51;;;;;;;12.25;7.72;;;;;;;20.27;42.39;102507.81;5026693;28;20053;-61
2022/11/30 08:07:16;;;;;;;10.88;7.05;;;;;;;20.29;42.47;102512.97;5029656;28;20049;-61
2022/11/30 08:09:43;;;;;;;13.30;8.13;;;;;;;20.27;42.54;102515.75;5033469;28;20044;-62
2022/11/30 08:12:09;;;;;;;12.77;7.80;;;;;;;20.37;42.33;102524.53;5033764;28;20041;-61
2022/11/30 08:14:35;;;;;;;12.38;7.70;;;;;;;20.35;42.36;102515.06;5034630;28;20044;-61
2022/11/30 08:17:01;;;;;;;13.75;7.38;;;;;;;20.38;42.31;102518.25;5033264;28;20040;-62
2022/11/30 08:19:26;;;;;;;12.57;7.70;;;;;;;20.32;42.49;102529.41;5034251;28;20056;-61
2022/11/30 08:21:52;;;;;;;13.23;7.90;;;;;;;20.36;42.46;102536.09;5032314;28;20045;-61
2022/11/30 08:24:18;;;;;;;12.25;7.38;;;;;;;20.27;42.44;102536.94;5031008;28;20045;-62
2022/11/30 08:26:43;;;;;;;13.68;8.00;;;;;;;20.26;42.65;102537.91;5031296;28;20048;-62
2022/11/30 08:29:12;;;;;;;13.52;8.23;;;;;;;20.36;42.26;102543.19;5034672;28;20043;-62
2022/11/30 08:31:38;;;;;;;12.70;7.78;;;;;;;20.30;42.46;102541.97;5030147;28;20049;-62
2022/11/30 08:34:06;;;;;;;12.15;7.95;;;;;;;20.38;42.39;102546.53;5033804;28;20033;-61
2022/11/30 08:36:32;;;;;;;10.75;7.22;;;;;;;20.33;42.49;102541.66;5034206;28;20048;-62
2022/11/30 08:38:59;;;;;;;13.98;7.88;;;;;;;20.28;42.59;102540.41;5037985;28;20040;-62
2022/11/30 08:41:25;;;;;;;12.40;8.15;;;;;;;20.38;42.35;102543.88;5031155;28;20227;-62
2022/11/30 08:43:52;;;;;;;10.90;7.20;;;;;;;20.29;42.55;102548.22;5032757;28;20052;-62
2022/11/30 08:46:19;;;;;;;12.05;7.45;;;;;;;20.28;42.54;102551.00;5035191;28;20576;-61
2022/11/30 08:48:45;;;;;;;14.02;8.05;;;;;;;20.31;42.50;102553.38;5037083;28;20056;-62
2022/11/30 08:51:13;;;;;;;11.20;6.93;;;;;;;20.38;42.48;102551.81;5030716;28;20042;-62
2022/11/30 08:53:39;;;;;;;11.18;6.95;;;;;;;20.34;42.39;102555.72;5036126;28;20563;-62
2022/11/30 08:56:12;;;;;;;13.18;8.45;;;;;;;20.31;42.41;102553.38;5041399;28;20115;-62
2022/11/30 08:58:38;;;;;;;12.35;8.45;;;;;;;20.27;42.55;102565.19;5032597;28;20682;-62
2022/11/30 09:01:14;;;;;;;12.80;7.80;;;;;;;20.33;42.32;102569.94;5034823;28;20040;-62
2022/11/30 09:03:41;;;;;;;14.07;8.50;;;;;;;20.34;42.11;102564.50;5039873;28;20052;-62
2022/11/30 09:06:15;;;;;;;11.70;7.47;;;;;;;20.30;42.23;102555.19;5032472;28;20041;-62
2022/11/30 09:08:44;;;;;;;10.27;7.00;;;;;;;20.30;42.46;102565.78;5029323;28;20037;-62
2022/11/30 09:11:20;;;;;;;12.02;7.28;;;;;;;20.23;42.36;102557.53;5036328;28;20041;-62
2022/11/30 09:13:47;;;;;;;11.90;7.50;;;;;;;20.26;42.49;102567.00;5035839;28;20036;-62
2022/11/30 09:16:14;;;;;;;14.27;8.35;;;;;;;20.22;42.63;102568.25;5032475;28;20049;-62
2022/11/30 09:18:40;;;;;;;11.93;7.68;;;;;;;20.31;42.31;102570.09;5029045;28;20110;-62
2022/11/30 09:21:11;;;;;;;10.60;7.10;;;;;;;20.27;42.30;102563.38;5029466;28;20134;-62
2022/11/30 09:23:37;;;;;;;13.13;7.80;;;;;;;20.29;42.47;102569.41;5028980;28;21282;-62
2022/11/30 09:26:10;;;;;;;11.45;7.88;;;;;;;20.23;42.54;102564.63;5027148;28;20091;-62
2022/11/30 09:28:36;;;;;;;11.48;7.32;;;;;;;20.22;42.36;102566.47;5029153;28;20037;-62
2022/11/30 09:31:10;;;;;;;10.23;7.18;;;;;;;20.27;42.32;102575.78;5032784;28;20713;-61
2022/11/30 09:33:36;;;;;;;11.02;7.90;;;;;;;20.27;42.37;102568.66;5030782;28;20826;-62
2022/11/30 09:36:09;;;;;;;12.55;7.68;;;;;;;20.28;42.36;102569.50;5029188;28;20044;-62
2022/11/30 09:38:36;;;;;;;11.75;6.78;;;;;;;20.17;42.32;102562.56;5032757;28;20057;-62
2022/11/30 09:41:21;;;;;;;11.15;7.25;;;;;;;20.23;42.33;102562.00;5037585;28;20060;-62
2022/11/30 09:44:02;;;;;;;13.48;8.23;;;;;;;20.22;42.21;102562.97;5034878;28;20066;-63
2022/11/30 09:46:37;;;;;;;16.90;8.52;;;;;;;20.22;42.35;102561.16;5050547;28;20497;-62
2022/11/30 09:49:27;;;;;;;12.20;8.13;;;;;;;20.20;42.33;102560.47;5033188;28;20055;-62
2022/11/30 09:51:57;;;;;;;12.07;7.65;;;;;;;20.17;42.44;102558.13;5032858;28;20037;-62
2022/11/30 09:54:37;;;;;;;11.18;7.38;;;;;;;20.29;42.27;102558.81;5035178;28;20069;-62
2022/11/30 09:57:30;;;;;;;13.18;7.47;;;;;;;20.43;42.09;102568.13;4979539;28;20084;-67
2022/11/30 10:00:01;;;;;;;12.70;7.88;;;;;;;20.61;41.96;102573.53;5033204;28;20095;-66
2022/11/30 10:02:33;;;;;;;12.10;7.20;;;;;;;20.67;41.89;102571.16;5034554;28;20025;-68
2022/11/30 10:04:59;;;;;;;10.35;7.00;;;;;;;20.77;41.98;102569.31;5034919;28;20523;-63
2022/11/30 10:07:31;;;;;;;13.07;7.82;;;;;;;20.84;41.80;102569.59;5032578;28;20043;-65
2022/11/30 10:10:21;;;;;;;11.82;7.03;;;;;;;20.90;41.77;102576.13;5030434;28;20519;-64
2022/11/30 10:13:07;;;;;;;11.70;7.18;;;;;;;20.99;41.84;102576.06;5021724;28;20040;-65
2022/11/30 10:16:00;;;;;;;11.73;7.82;;;;;;;21.01;41.79;102566.19;5021298;28;20045;-63
2022/11/30 10:19:04;;;;;;;13.32;8.30;;;;;;;21.04;41.71;102570.34;5035241;28;20431;-64
2022/11/30 10:21:32;;;;;;;11.02;7.72;;;;;;;21.09;41.73;102571.56;5026012;28;20060;-66
2022/11/30 10:24:23;;;;;;;10.35;6.85;;;;;;;21.09;41.81;102568.09;5034150;28;20037;-68
2022/11/30 10:26:54;;;;;;;10.18;6.63;;;;;;;21.10;41.63;102559.16;5032607;28;20037;-66
2022/11/30 10:29:28;;;;;;;11.68;7.30;;;;;;;21.17;41.82;102570.81;5004327;28;20041;-67
2022/11/30 10:31:57;;;;;;;11.75;8.02;;;;;;;21.20;41.78;102565.25;5032134;28;20086;-65
2022/11/30 10:34:30;;;;;;;10.43;6.50;;;;;;;21.24;41.60;102566.66;5033990;28;20708;-68
2022/11/30 10:37:27;;;;;;;10.70;6.85;;;;;;;21.26;41.94;102561.22;5034929;28;20538;-67
2022/11/30 10:40:04;;;;;;;12.25;7.30;;;;;;;21.29;41.61;102563.56;5035049;28;20115;-65
2022/11/30 10:42:46;;;;;;;11.40;7.30;;;;;;;21.34;41.69;102566.59;5038587;28;20750;-64
2022/11/30 10:45:16;;;;;;;10.57;6.78;;;;;;;21.36;41.84;102560.19;5024025;28;20046;-66
2022/11/30 10:47:55;;;;;;;10.88;7.18;;;;;;;21.22;41.82;102570.41;5026452;28;20041;-63
2022/11/30 10:50:26;;;;;;;11.57;7.30;;;;;;;21.18;41.94;102564.53;5034416;28;20051;-63
2022/11/30 10:52:54;;;;;;;11.98;7.30;;;;;;;21.09;41.95;102565.44;5034742;28;20083;-63
2022/11/30 10:55:23;;;;;;;10.95;7.28;;;;;;;21.10;41.86;102569.75;5037503;28;20071;-63
2022/11/30 10:57:56;;;;;;;10.93;7.72;;;;;;;21.04;42.03;102567.69;5036799;28;20110;-63
2022/11/30 11:00:22;;;;;;;11.15;6.88;;;;;;;21.04;41.90;102567.69;5031952;28;20047;-63
2022/11/30 11:02:48;;;;;;;11.07;7.22;;;;;;;21.04;41.93;102570.34;5004069;28;20411;-63
2022/11/30 11:05:28;;;;;;;12.75;7.55;;;;;;;21.01;42.09;102568.00;5033375;28;20131;-63
2022/11/30 11:08:16;;;;;;;11.23;7.72;;;;;;;21.01;41.90;102566.19;5032054;28;20040;-63
2022/11/30 11:10:47;;;;;;;11.13;7.50;;;;;;;21.02;41.96;102565.19;5034248;28;20518;-63
2022/11/30 11:13:34;;;;;;;12.05;7.28;;;;;;;20.97;42.07;102558.66;5036033;28;20084;-62
2022/11/30 11:16:01;;;;;;;11.23;7.95;;;;;;;21.10;41.73;102567.09;5035304;28;20477;-65
2022/11/30 11:18:28;;;;;;;13.25;7.65;;;;;;;21.29;41.46;102564.41;5007211;28;20120;-67
2022/11/30 11:21:14;;;;;;;11.77;7.82;;;;;;;21.35;41.26;102569.09;5036814;28;20041;-70
2022/11/30 11:23:42;;;;;;;12.68;8.05;;;;;;;21.42;41.27;102567.53;5030804;28;20043;-66
2022/11/30 11:26:27;;;;;;;11.25;7.38;;;;;;;21.45;41.15;102570.88;5035975;28;20040;-68